createdAt,value
2017-04-13T00:00:56.135Z,16.30
2017-04-13T00:01:54.634Z,15.25
2017-04-13T00:02:53.168Z,20.78
2017-04-13T00:03:51.699Z,14.95
2017-04-13T00:04:50.209Z,21.22
2017-04-13T00:05:48.827Z,14.35
2017-04-13T00:06:47.339Z,16.57
2017-04-13T00:07:45.932Z,17.42
2017-04-13T00:08:44.571Z,18.08
2017-04-13T00:09:43.167Z,17.62
2017-04-13T00:10:41.764Z,17.17
2017-04-13T00:11:40.299Z,16.33
2017-04-13T00:12:38.803Z,15.72
2017-04-13T00:13:37.367Z,18.93
2017-04-13T00:14:35.980Z,18.48
2017-04-13T00:15:34.613Z,16.72
2017-04-13T00:16:33.271Z,18.13
2017-04-13T00:17:31.995Z,24.95
2017-04-13T00:18:30.540Z,20.97
2017-04-13T00:19:29.191Z,21.33
2017-04-13T00:20:27.831Z,18.68
2017-04-13T00:21:26.462Z,15.73
2017-04-13T00:22:25.035Z,20.33
2017-04-13T00:23:23.505Z,17.47
2017-04-13T00:24:22.056Z,24.05
2017-04-13T00:25:20.571Z,14.97
2017-04-13T00:26:19.123Z,17.57
2017-04-13T00:27:17.655Z,16.87
2017-04-13T00:28:16.160Z,16.82
2017-04-13T00:29:14.688Z,20.47
2017-04-13T00:30:13.208Z,21.45
2017-04-13T00:31:11.919Z,15.97
2017-04-13T00:32:10.523Z,16.72
2017-04-13T00:33:09.203Z,21.55
2017-04-13T00:34:07.730Z,16.75
2017-04-13T00:35:06.268Z,18.15
2017-04-13T00:36:04.764Z,23.22
2017-04-13T00:37:03.341Z,19.57
2017-04-13T00:38:01.907Z,22.00
2017-04-13T00:39:00.412Z,16.55
2017-04-13T00:39:58.915Z,18.42
2017-04-13T00:40:57.404Z,15.72
2017-04-13T00:41:56.003Z,17.70
2017-04-13T00:42:54.648Z,17.13
2017-04-13T00:43:53.245Z,15.58
2017-04-13T00:44:51.947Z,15.77
2017-04-13T00:45:50.571Z,19.07
2017-04-13T00:46:49.079Z,27.73
2017-04-13T00:47:47.659Z,16.30
2017-04-13T00:48:46.186Z,16.28
2017-04-13T00:49:44.691Z,18.87
2017-04-13T00:50:43.279Z,23.23
2017-04-13T00:51:41.823Z,18.08
2017-04-13T00:52:40.383Z,23.80
2017-04-13T00:53:38.940Z,16.35
2017-04-13T00:54:37.420Z,18.88
2017-04-13T00:55:36.031Z,17.90
2017-04-13T00:56:34.587Z,14.68
2017-04-13T00:57:33.193Z,17.57
2017-04-13T00:58:31.840Z,19.70
2017-04-13T00:59:30.399Z,21.55
2017-04-13T01:00:28.995Z,20.43
2017-04-13T01:01:27.583Z,19.13
2017-04-13T01:02:26.178Z,18.52
2017-04-13T01:03:24.731Z,21.42
2017-04-13T01:04:23.238Z,16.52
2017-04-13T01:05:21.787Z,15.63
2017-04-13T01:06:20.308Z,24.28
2017-04-13T01:07:18.823Z,22.52
2017-04-13T01:08:17.395Z,18.28
2017-04-13T01:09:15.883Z,15.95
2017-04-13T01:10:14.423Z,17.58
2017-04-13T01:11:12.955Z,20.50
2017-04-13T01:12:11.470Z,21.50
2017-04-13T01:13:09.972Z,15.75
2017-04-13T01:14:08.525Z,18.72
2017-04-13T01:15:07.038Z,20.48
2017-04-13T01:16:05.741Z,22.72
2017-04-13T01:17:04.331Z,20.65
2017-04-13T01:18:02.887Z,28.13
2017-04-13T01:19:04.745Z,17.82
2017-04-13T01:20:03.541Z,22.15
2017-04-13T01:21:02.063Z,21.92
2017-04-13T01:22:00.579Z,20.03
2017-04-13T01:22:59.218Z,21.37
2017-04-13T01:23:57.780Z,17.70
2017-04-13T01:24:56.379Z,20.67
2017-04-13T01:25:54.990Z,23.95
2017-04-13T01:26:53.491Z,19.35
2017-04-13T01:27:52.005Z,16.58
2017-04-13T01:28:50.620Z,21.33
2017-04-13T01:29:49.239Z,20.45
2017-04-13T01:30:47.774Z,17.82
2017-04-13T01:31:46.423Z,22.02
2017-04-13T01:32:44.923Z,21.17
2017-04-13T01:33:43.408Z,17.85
2017-04-13T01:34:42.035Z,20.23
2017-04-13T01:35:40.643Z,19.10
2017-04-13T01:36:39.250Z,20.57
2017-04-13T01:37:37.893Z,24.03
2017-04-13T01:38:36.404Z,21.40
2017-04-13T01:39:34.983Z,20.58
2017-04-13T01:40:33.461Z,19.92
2017-04-13T01:41:31.955Z,20.10
2017-04-13T01:42:30.483Z,17.93
2017-04-13T01:43:28.978Z,21.80
2017-04-13T01:44:27.502Z,21.40
2017-04-13T01:45:26.078Z,22.40
2017-04-13T01:46:24.676Z,18.58
2017-04-13T01:47:23.186Z,21.22
2017-04-13T01:48:21.769Z,18.00
2017-04-13T01:49:20.382Z,22.10
2017-04-13T01:50:18.919Z,19.23
2017-04-13T01:51:17.415Z,21.78
2017-04-13T01:52:16.034Z,20.70
2017-04-13T01:53:14.922Z,23.30
2017-04-13T01:54:13.476Z,20.42
2017-04-13T01:55:12.016Z,17.02
2017-04-13T01:56:10.631Z,18.93
2017-04-13T01:57:09.209Z,21.25
2017-04-13T01:58:07.795Z,18.97
2017-04-13T01:59:06.290Z,23.32
2017-04-13T02:00:04.882Z,16.80
2017-04-13T02:01:03.434Z,21.73
2017-04-13T02:02:02.056Z,17.35
2017-04-13T02:03:00.682Z,20.63
2017-04-13T02:03:59.348Z,17.15
2017-04-13T02:04:57.968Z,18.27
2017-04-13T02:05:56.574Z,19.23
2017-04-13T02:06:55.107Z,21.57
2017-04-13T02:07:53.646Z,17.88
2017-04-13T02:08:52.159Z,18.88
2017-04-13T02:09:50.679Z,18.22
2017-04-13T02:10:49.251Z,18.60
2017-04-13T02:11:47.784Z,19.38
2017-04-13T02:12:46.296Z,18.88
2017-04-13T02:13:44.811Z,19.90
2017-04-13T02:14:43.435Z,16.85
2017-04-13T02:15:41.959Z,24.63
2017-04-13T02:16:40.478Z,23.87
2017-04-13T02:17:39.031Z,15.53
2017-04-13T02:18:37.545Z,20.73
2017-04-13T02:19:36.083Z,18.13
2017-04-13T02:20:34.655Z,22.97
2017-04-13T02:21:33.206Z,17.55
2017-04-13T02:22:31.695Z,20.32
2017-04-13T02:23:30.239Z,20.45
2017-04-13T02:24:28.880Z,21.98
2017-04-13T02:25:27.530Z,17.90
2017-04-13T02:26:26.166Z,20.65
2017-04-13T02:27:24.779Z,19.45
2017-04-13T02:28:23.330Z,22.22
2017-04-13T02:29:22.103Z,17.22
2017-04-13T02:30:20.731Z,16.47
2017-04-13T02:31:19.231Z,22.77
2017-04-13T02:32:17.803Z,21.45
2017-04-13T02:33:16.299Z,20.75
2017-04-13T02:34:14.775Z,21.28
2017-04-13T02:35:13.284Z,18.88
2017-04-13T02:36:11.815Z,16.23
2017-04-13T02:37:10.338Z,19.95
2017-04-13T02:38:08.914Z,20.80
2017-04-13T02:39:07.487Z,18.40
2017-04-13T02:40:06.046Z,19.27
2017-04-13T02:41:04.607Z,20.80
2017-04-13T02:42:03.171Z,21.48
2017-04-13T02:43:01.683Z,19.23
2017-04-13T02:44:00.187Z,19.68
2017-04-13T02:44:58.691Z,20.38
2017-04-13T02:45:57.249Z,20.55
2017-04-13T02:46:55.876Z,18.37
2017-04-13T02:47:54.491Z,20.80
2017-04-13T02:48:53.087Z,25.90
2017-04-13T02:49:52.512Z,20.83
2017-04-13T02:50:51.015Z,21.92
2017-04-13T02:51:49.515Z,19.62
2017-04-13T02:52:48.043Z,24.73
2017-04-13T02:53:46.567Z,22.63
2017-04-13T02:54:45.081Z,21.78
2017-04-13T02:55:43.632Z,20.05
2017-04-13T02:56:42.232Z,20.75
2017-04-13T02:57:40.831Z,20.92
2017-04-13T02:58:39.360Z,20.10
2017-04-13T02:59:37.898Z,21.40
2017-04-13T03:00:36.581Z,18.45
2017-04-13T03:01:35.255Z,19.23
2017-04-13T03:02:33.770Z,20.92
2017-04-13T03:03:32.284Z,19.62
2017-04-13T03:04:30.783Z,20.40
2017-04-13T03:05:29.309Z,21.57
2017-04-13T03:06:27.812Z,17.08
2017-04-13T03:07:26.427Z,25.62
2017-04-13T03:08:25.007Z,21.10
2017-04-13T03:09:23.651Z,22.93
2017-04-13T03:10:22.391Z,17.10
2017-04-13T03:11:20.911Z,17.12
2017-04-13T03:12:19.519Z,21.15
2017-04-13T03:13:18.211Z,24.05
2017-04-13T03:14:16.887Z,18.62
2017-04-13T03:15:15.390Z,25.13
2017-04-13T03:16:13.959Z,18.53
2017-04-13T03:17:12.497Z,18.13
2017-04-13T03:18:11.009Z,21.12
2017-04-13T03:19:09.549Z,21.37
2017-04-13T03:20:08.106Z,21.03
2017-04-13T03:21:06.688Z,17.58
2017-04-13T03:22:05.204Z,24.18
2017-04-13T03:23:03.735Z,19.93
2017-04-13T03:24:02.330Z,18.40
2017-04-13T03:25:00.976Z,21.28
2017-04-13T03:25:59.551Z,20.60
2017-04-13T03:26:58.068Z,20.83
2017-04-13T03:27:56.632Z,23.63
2017-04-13T03:28:55.416Z,19.83
2017-04-13T03:29:54.050Z,20.90
2017-04-13T03:30:52.667Z,21.83
2017-04-13T03:31:51.375Z,23.57
2017-04-13T03:32:49.921Z,21.38
2017-04-13T03:33:48.451Z,26.02
2017-04-13T03:34:46.947Z,22.13
2017-04-13T03:35:45.603Z,21.58
2017-04-13T03:36:44.134Z,21.05
2017-04-13T03:37:42.648Z,25.07
2017-04-13T03:38:41.160Z,23.22
2017-04-13T03:39:39.680Z,28.48
2017-04-13T03:40:38.167Z,22.28
2017-04-13T03:41:36.695Z,23.18
2017-04-13T03:42:35.179Z,26.07
2017-04-13T03:43:33.723Z,22.60
2017-04-13T03:44:32.303Z,20.35
2017-04-13T03:45:30.853Z,26.95
2017-04-13T03:46:29.418Z,22.42
2017-04-13T03:47:27.915Z,23.17
2017-04-13T03:48:26.496Z,21.30
2017-04-13T03:49:24.982Z,20.38
2017-04-13T03:50:23.487Z,20.35
2017-04-13T03:51:22.000Z,25.12
2017-04-13T03:52:20.506Z,24.07
2017-04-13T03:53:18.990Z,21.12
2017-04-13T03:54:17.554Z,30.87
2017-04-13T03:55:16.110Z,28.68
2017-04-13T03:56:14.643Z,24.58
2017-04-13T03:57:13.141Z,30.32
2017-04-13T03:58:11.696Z,33.73
2017-04-13T03:59:10.288Z,31.38
2017-04-13T04:00:08.819Z,27.60
2017-04-13T04:01:07.499Z,25.40
2017-04-13T04:02:06.035Z,29.23
2017-04-13T04:03:04.535Z,26.42
2017-04-13T04:04:03.059Z,24.82
2017-04-13T04:05:01.570Z,26.23
2017-04-13T04:06:00.130Z,23.57
2017-04-13T04:06:58.658Z,22.35
2017-04-13T04:07:57.208Z,25.98
2017-04-13T04:08:55.734Z,25.78
2017-04-13T04:09:54.232Z,26.80
2017-04-13T04:10:52.752Z,23.67
2017-04-13T04:11:51.258Z,28.03
2017-04-13T04:12:49.823Z,31.23
2017-04-13T04:13:48.371Z,26.33
2017-04-13T04:14:46.951Z,25.62
2017-04-13T04:15:45.563Z,25.35
2017-04-13T04:16:45.358Z,24.32
2017-04-13T04:17:44.279Z,24.50
2017-04-13T04:18:42.810Z,27.65
2017-04-13T04:19:41.375Z,33.55
2017-04-13T04:20:40.035Z,25.45
2017-04-13T04:21:38.568Z,24.88
2017-04-13T04:22:37.192Z,25.98
2017-04-13T04:23:35.815Z,31.17
2017-04-13T04:24:34.404Z,29.70
2017-04-13T04:25:33.090Z,27.40
2017-04-13T04:26:31.599Z,25.68
2017-04-13T04:27:30.147Z,26.47
2017-04-13T04:28:28.659Z,25.10
2017-04-13T04:29:27.164Z,27.42
2017-04-13T04:30:25.691Z,27.95
2017-04-13T04:31:24.207Z,23.25
2017-04-13T04:32:22.694Z,27.15
2017-04-13T04:33:21.211Z,27.60
2017-04-13T04:34:19.812Z,28.77
2017-04-13T04:35:18.392Z,25.05
2017-04-13T04:36:16.966Z,26.83
2017-04-13T04:37:15.494Z,27.45
2017-04-13T04:38:14.000Z,26.62
2017-04-13T04:39:12.504Z,24.93
2017-04-13T04:40:11.047Z,23.82
2017-04-13T04:41:09.563Z,26.40
2017-04-13T04:42:08.090Z,29.65
2017-04-13T04:43:06.817Z,26.20
2017-04-13T04:44:05.352Z,26.75
2017-04-13T04:45:03.955Z,23.73
2017-04-13T04:46:02.474Z,26.10
2017-04-13T04:47:00.991Z,26.62
2017-04-13T04:47:59.632Z,29.18
2017-04-13T04:48:58.187Z,29.37
2017-04-13T04:49:56.707Z,30.92
2017-04-13T04:50:55.280Z,30.03
2017-04-13T04:51:53.784Z,34.40
2017-04-13T04:52:52.359Z,30.72
2017-04-13T04:53:50.915Z,30.07
2017-04-13T04:54:49.426Z,31.77
2017-04-13T04:55:48.087Z,27.20
2017-04-13T04:56:46.592Z,25.48
2017-04-13T04:57:45.100Z,29.10
2017-04-13T04:58:43.621Z,23.80
2017-04-13T04:59:42.271Z,27.25
2017-04-13T05:00:40.907Z,28.93
2017-04-13T05:01:39.403Z,27.75
2017-04-13T05:02:37.902Z,37.35
2017-04-13T05:03:36.420Z,25.85
2017-04-13T05:04:35.007Z,23.05
2017-04-13T05:05:33.533Z,21.87
2017-04-13T05:06:32.083Z,21.70
2017-04-13T05:07:30.546Z,22.03
2017-04-13T05:08:29.479Z,25.92
2017-04-13T05:09:28.069Z,27.70
2017-04-13T05:10:26.635Z,26.82
2017-04-13T05:11:25.126Z,28.42
2017-04-13T05:12:24.466Z,22.95
2017-04-13T05:13:22.953Z,24.50
2017-04-13T05:14:21.468Z,26.03
2017-04-13T05:15:20.089Z,34.05
2017-04-13T05:16:18.632Z,24.30
2017-04-13T05:17:17.400Z,27.32
2017-04-13T05:18:16.022Z,24.78
2017-04-13T05:19:14.595Z,39.02
2017-04-13T05:20:13.203Z,27.18
2017-04-13T05:21:12.179Z,25.82
2017-04-13T05:22:10.673Z,29.92
2017-04-13T05:23:09.424Z,20.93
2017-04-13T05:24:08.298Z,25.50
2017-04-13T05:25:07.279Z,26.37
2017-04-13T05:26:05.800Z,29.77
2017-04-13T05:27:04.441Z,21.32
2017-04-13T05:28:03.391Z,27.58
2017-04-13T05:29:01.943Z,28.60
2017-04-13T05:30:00.456Z,23.12
2017-04-13T05:30:59.232Z,24.62
2017-04-13T05:31:58.382Z,24.73
2017-04-13T05:32:56.984Z,21.45
2017-04-13T05:33:55.694Z,24.95
2017-04-13T05:34:54.243Z,29.37
2017-04-13T05:35:52.782Z,24.72
2017-04-13T05:36:51.349Z,23.48
2017-04-13T05:37:49.851Z,22.80
2017-04-13T05:38:48.510Z,20.35
2017-04-13T05:39:47.061Z,22.05
2017-04-13T05:40:45.625Z,25.87
2017-04-13T05:41:44.151Z,23.82
2017-04-13T05:42:42.652Z,24.50
2017-04-13T05:43:41.179Z,24.13
2017-04-13T05:44:39.697Z,26.98
2017-04-13T05:45:38.199Z,19.97
2017-04-13T05:46:37.275Z,23.02
2017-04-13T05:47:35.842Z,22.13
2017-04-13T05:48:34.403Z,20.57
2017-04-13T05:49:34.966Z,22.12
2017-04-13T05:50:33.592Z,25.73
2017-04-13T05:51:32.640Z,26.55
2017-04-13T05:52:34.603Z,23.17
2017-04-13T05:53:35.463Z,22.72
2017-04-13T05:54:34.003Z,26.15
2017-04-13T05:55:32.529Z,18.83
2017-04-13T05:56:31.026Z,26.38
2017-04-13T05:57:29.558Z,19.50
2017-04-13T05:58:28.076Z,23.32
2017-04-13T05:59:26.623Z,22.55
2017-04-13T06:00:25.202Z,19.03
2017-04-13T06:01:23.706Z,21.38
2017-04-13T06:02:22.273Z,23.00
2017-04-13T06:03:20.799Z,24.40
2017-04-13T06:04:19.351Z,22.60
2017-04-13T06:05:17.894Z,25.08
2017-04-13T06:06:16.462Z,25.58
2017-04-13T06:07:15.038Z,23.08
2017-04-13T06:08:13.686Z,24.52
2017-04-13T06:09:12.382Z,22.82
2017-04-13T06:10:11.026Z,23.90
2017-04-13T06:11:09.637Z,26.67
2017-04-13T06:12:08.215Z,22.77
2017-04-13T06:13:06.835Z,23.53
2017-04-13T06:14:05.358Z,25.42
2017-04-13T06:15:03.952Z,25.73
2017-04-13T06:16:02.678Z,23.15
2017-04-13T06:17:01.199Z,23.43
2017-04-13T06:17:59.708Z,26.33
2017-04-13T06:18:58.280Z,26.80
2017-04-13T06:19:56.783Z,24.00
2017-04-13T06:20:55.425Z,33.52
2017-04-13T06:21:53.951Z,23.60
2017-04-13T06:22:52.452Z,19.95
2017-04-13T06:23:50.979Z,28.40
2017-04-13T06:24:49.509Z,22.93
2017-04-13T06:25:48.099Z,27.88
2017-04-13T06:26:46.657Z,23.23
2017-04-13T06:27:45.164Z,21.48
2017-04-13T06:28:43.702Z,22.48
2017-04-13T06:29:42.395Z,22.32
2017-04-13T06:30:40.920Z,24.27
2017-04-13T06:31:39.463Z,22.67
2017-04-13T06:32:37.983Z,22.37
2017-04-13T06:33:36.520Z,21.88
2017-04-13T06:34:35.026Z,21.88
2017-04-13T06:35:33.648Z,20.22
2017-04-13T06:36:32.450Z,21.20
2017-04-13T06:37:31.058Z,15.85
2017-04-13T06:38:29.591Z,19.10
2017-04-13T06:39:28.177Z,19.65
2017-04-13T06:40:26.702Z,18.37
2017-04-13T06:41:25.271Z,15.92
2017-04-13T06:42:23.813Z,17.52
2017-04-13T06:43:22.390Z,17.02
2017-04-13T06:44:20.900Z,23.92
2017-04-13T06:45:19.414Z,22.25
2017-04-13T06:46:18.029Z,19.55
2017-04-13T06:47:16.603Z,13.20
2017-04-13T06:48:15.135Z,17.03
2017-04-13T06:49:13.683Z,15.93
2017-04-13T06:50:12.427Z,20.53
2017-04-13T06:51:11.007Z,20.80
2017-04-13T06:52:09.664Z,16.53
2017-04-13T06:53:08.279Z,23.80
2017-04-13T06:54:06.870Z,15.02
2017-04-13T06:55:05.518Z,20.03
2017-04-13T06:56:04.047Z,23.13
2017-04-13T06:57:02.577Z,20.62
2017-04-13T06:58:01.150Z,18.77
2017-04-13T06:58:59.679Z,17.00
2017-04-13T06:59:58.241Z,17.83
2017-04-13T07:00:56.851Z,23.78
2017-04-13T07:01:55.415Z,20.28
2017-04-13T07:02:55.888Z,17.90
2017-04-13T07:03:54.612Z,17.92
2017-04-13T07:04:53.498Z,17.95
2017-04-13T07:05:52.442Z,18.30
2017-04-13T07:06:50.926Z,17.12
2017-04-13T07:07:49.551Z,17.63
2017-04-13T07:08:48.151Z,15.38
2017-04-13T07:09:46.663Z,14.73
2017-04-13T07:10:45.175Z,17.38
2017-04-13T07:11:43.713Z,19.52
2017-04-13T07:12:42.297Z,14.60
2017-04-13T07:13:40.901Z,16.13
2017-04-13T07:14:39.382Z,13.42
2017-04-13T07:15:37.899Z,15.93
2017-04-13T07:16:36.507Z,14.15
2017-04-13T07:17:34.982Z,25.05
2017-04-13T07:18:33.563Z,16.97
2017-04-13T07:19:32.190Z,17.62
2017-04-13T07:20:31.043Z,14.62
2017-04-13T07:21:29.771Z,14.42
2017-04-13T07:22:28.274Z,11.32
2017-04-13T07:23:26.859Z,23.25
2017-04-13T07:24:25.416Z,12.38
2017-04-13T07:25:23.976Z,15.90
2017-04-13T07:26:22.487Z,18.68
2017-04-13T07:27:21.073Z,16.85
2017-04-13T07:28:19.630Z,16.02
2017-04-13T07:29:18.242Z,17.35
2017-04-13T07:30:16.894Z,15.32
2017-04-13T07:31:15.414Z,15.75
2017-04-13T07:32:14.015Z,11.75
2017-04-13T07:33:12.621Z,13.63
2017-04-13T07:34:11.235Z,15.33
2017-04-13T07:35:09.743Z,15.52
2017-04-13T07:36:08.294Z,16.50
2017-04-13T07:37:06.867Z,14.33
2017-04-13T07:38:05.403Z,24.05
2017-04-13T07:39:04.333Z,19.65
2017-04-13T07:40:02.835Z,16.90
2017-04-13T07:41:01.390Z,18.22
2017-04-13T07:41:59.912Z,16.92
2017-04-13T07:42:58.467Z,14.45
2017-04-13T07:43:57.039Z,14.42
2017-04-13T07:44:55.627Z,15.43
2017-04-13T07:45:54.190Z,13.52
2017-04-13T07:46:52.699Z,17.20
2017-04-13T07:47:51.211Z,12.42
2017-04-13T07:48:49.723Z,15.20
2017-04-13T07:49:48.210Z,11.52
2017-04-13T07:50:46.708Z,14.27
2017-04-13T07:51:45.220Z,12.83
2017-04-13T07:52:43.846Z,15.72
2017-04-13T07:53:42.423Z,16.18
2017-04-13T07:54:40.943Z,9.42
2017-04-13T07:55:39.587Z,11.92
2017-04-13T07:56:38.214Z,18.30
2017-04-13T07:57:37.614Z,16.80
2017-04-13T07:58:36.151Z,18.12
2017-04-13T07:59:34.665Z,9.60
2017-04-13T08:00:33.176Z,14.67
2017-04-13T08:01:31.729Z,15.20
2017-04-13T08:02:30.254Z,14.25
2017-04-13T08:03:28.883Z,16.62
2017-04-13T08:04:27.419Z,12.78
2017-04-13T08:05:25.964Z,12.28
2017-04-13T08:06:24.583Z,17.85
2017-04-13T08:07:23.131Z,16.32
2017-04-13T08:08:21.743Z,15.17
2017-04-13T08:09:20.313Z,14.57
2017-04-13T08:10:18.842Z,16.50
2017-04-13T08:11:17.376Z,10.47
2017-04-13T08:12:15.903Z,16.15
2017-04-13T08:13:14.415Z,14.73
2017-04-13T08:14:12.931Z,16.83
2017-04-13T08:15:11.455Z,12.12
2017-04-13T08:16:10.365Z,12.98
2017-04-13T08:17:08.984Z,12.48
2017-04-13T08:18:07.482Z,12.98
2017-04-13T08:19:06.087Z,12.53
2017-04-13T08:20:04.624Z,14.33
2017-04-13T08:21:03.185Z,10.87
2017-04-13T08:22:01.806Z,14.47
2017-04-13T08:23:00.366Z,17.87
2017-04-13T08:23:58.907Z,15.97
2017-04-13T08:24:57.480Z,18.97
2017-04-13T08:25:55.994Z,14.68
2017-04-13T08:26:54.568Z,11.72
2017-04-13T08:27:53.099Z,17.40
2017-04-13T08:28:51.592Z,15.05
2017-04-13T08:29:50.203Z,12.05
2017-04-13T08:30:48.836Z,10.13
2017-04-13T08:31:47.351Z,18.10
2017-04-13T08:32:45.851Z,12.75
2017-04-13T08:33:44.372Z,9.98
2017-04-13T08:34:42.888Z,12.48
2017-04-13T08:35:41.415Z,10.57
2017-04-13T08:36:39.974Z,8.93
2017-04-13T08:37:38.559Z,10.07
2017-04-13T08:38:37.158Z,11.37
2017-04-13T08:39:35.779Z,15.05
2017-04-13T08:40:34.447Z,15.30
2017-04-13T08:41:33.097Z,14.30
2017-04-13T08:42:31.580Z,11.37
2017-04-13T08:43:30.098Z,10.88
2017-04-13T08:44:28.633Z,9.33
2017-04-13T08:45:27.155Z,13.08
2017-04-13T08:46:25.627Z,9.60
2017-04-13T08:47:24.170Z,13.35
2017-04-13T08:48:22.703Z,9.88
2017-04-13T08:49:21.191Z,15.83
2017-04-13T08:50:19.784Z,9.55
2017-04-13T08:51:18.318Z,8.32
2017-04-13T08:52:16.839Z,9.15
2017-04-13T08:53:15.342Z,10.93
2017-04-13T08:54:13.865Z,9.33
2017-04-13T08:55:12.370Z,6.98
2017-04-13T08:56:10.908Z,8.27
2017-04-13T08:57:09.552Z,11.02
2017-04-13T08:58:08.063Z,13.77
2017-04-13T08:59:06.620Z,11.52
2017-04-13T09:00:05.130Z,14.27
2017-04-13T09:01:03.648Z,12.85
2017-04-13T09:02:02.226Z,8.47
2017-04-13T09:03:00.728Z,10.23
2017-04-13T09:03:59.292Z,10.30
2017-04-13T09:04:58.200Z,8.92
2017-04-13T09:05:57.219Z,8.03
2017-04-13T09:06:55.785Z,6.23
2017-04-13T09:07:54.380Z,6.85
2017-04-13T09:08:52.939Z,13.75
2017-04-13T09:09:51.475Z,15.22
2017-04-13T09:10:49.998Z,10.52
2017-04-13T09:11:48.540Z,7.53
2017-04-13T09:12:47.020Z,10.87
2017-04-13T09:13:45.584Z,12.47
2017-04-13T09:14:44.115Z,9.92
2017-04-13T09:15:42.604Z,7.08
2017-04-13T09:16:41.113Z,9.93
2017-04-13T09:17:39.607Z,8.85
2017-04-13T09:18:38.127Z,9.37
2017-04-13T09:19:36.750Z,12.78
2017-04-13T09:20:35.260Z,9.18
2017-04-13T09:21:33.820Z,11.08
2017-04-13T09:22:32.351Z,9.68
2017-04-13T09:23:30.855Z,12.00
2017-04-13T09:24:29.469Z,7.02
2017-04-13T09:25:27.974Z,8.53
2017-04-13T09:26:26.558Z,13.52
2017-04-13T09:27:25.198Z,30.45
2017-04-13T09:28:23.722Z,7.53
2017-04-13T09:29:22.260Z,9.32
2017-04-13T09:30:20.831Z,8.03
2017-04-13T09:31:19.381Z,9.33
2017-04-13T09:32:17.935Z,12.73
2017-04-13T09:33:16.494Z,10.28
2017-04-13T09:34:15.167Z,7.58
2017-04-13T09:35:13.719Z,11.00
2017-04-13T09:36:12.392Z,7.50
2017-04-13T09:37:10.971Z,7.08
2017-04-13T09:38:09.458Z,9.57
2017-04-13T09:39:08.002Z,10.40
2017-04-13T09:40:06.486Z,11.30
2017-04-13T09:41:05.138Z,6.80
2017-04-13T09:42:03.727Z,8.38
2017-04-13T09:43:02.248Z,9.52
2017-04-13T09:44:00.787Z,7.43
2017-04-13T09:44:59.307Z,10.88
2017-04-13T09:45:57.897Z,9.40
2017-04-13T09:46:56.427Z,9.00
2017-04-13T09:47:54.956Z,10.50
2017-04-13T09:48:53.479Z,11.17
2017-04-13T09:49:52.008Z,9.73
2017-04-13T09:50:50.548Z,13.50
2017-04-13T09:51:49.121Z,7.10
2017-04-13T09:52:47.897Z,15.75
2017-04-13T09:53:46.410Z,10.00
2017-04-13T09:54:44.968Z,8.33
2017-04-13T09:55:43.514Z,10.47
2017-04-13T09:56:42.104Z,9.77
2017-04-13T09:57:40.635Z,7.10
2017-04-13T09:58:39.275Z,11.00
2017-04-13T09:59:37.856Z,10.95
2017-04-13T10:00:36.556Z,8.03
2017-04-13T10:01:35.079Z,7.57
2017-04-13T10:02:33.591Z,7.32
2017-04-13T10:03:32.121Z,10.40
2017-04-13T10:04:30.637Z,10.67
2017-04-13T10:05:29.260Z,22.87
2017-04-13T10:06:27.903Z,6.40
2017-04-13T10:07:26.508Z,10.17
2017-04-13T10:08:25.130Z,10.25
2017-04-13T10:09:23.667Z,11.23
2017-04-13T10:10:22.239Z,7.62
2017-04-13T10:11:20.819Z,8.57
2017-04-13T10:12:19.347Z,7.45
2017-04-13T10:13:17.874Z,7.57
2017-04-13T10:14:16.430Z,11.28
2017-04-13T10:15:15.028Z,9.77
2017-04-13T10:16:13.559Z,8.28
2017-04-13T10:17:12.099Z,7.37
2017-04-13T10:18:10.800Z,8.98
2017-04-13T10:19:09.318Z,14.33
2017-04-13T10:20:07.868Z,8.65
2017-04-13T10:21:06.410Z,6.92
2017-04-13T10:22:04.970Z,5.73
2017-04-13T10:23:03.489Z,6.00
2017-04-13T10:24:02.063Z,10.28
2017-04-13T10:25:00.725Z,6.32
2017-04-13T10:25:59.239Z,12.67
2017-04-13T10:26:57.767Z,6.33
2017-04-13T10:27:56.278Z,8.92
2017-04-13T10:28:54.834Z,12.08
2017-04-13T10:29:53.338Z,13.38
2017-04-13T10:30:51.846Z,8.90
2017-04-13T10:31:50.387Z,8.12
2017-04-13T10:32:48.943Z,7.87
2017-04-13T10:33:47.476Z,13.33
2017-04-13T10:34:45.977Z,6.22
2017-04-13T10:35:44.601Z,6.58
2017-04-13T10:36:43.185Z,7.83
2017-04-13T10:37:41.708Z,5.80
2017-04-13T10:38:40.198Z,7.43
2017-04-13T10:39:38.723Z,8.70
2017-04-13T10:40:37.216Z,10.30
2017-04-13T10:41:35.786Z,9.42
2017-04-13T10:42:34.450Z,3.67
2017-04-13T10:43:33.079Z,8.75
2017-04-13T10:44:31.713Z,7.53
2017-04-13T10:45:30.240Z,5.55
2017-04-13T10:46:28.987Z,4.00
2017-04-13T10:47:27.618Z,6.92
2017-04-13T10:48:26.173Z,4.52
2017-04-13T10:49:24.735Z,6.15
2017-04-13T10:50:23.334Z,6.65
2017-04-13T10:51:21.894Z,5.82
2017-04-13T10:52:20.418Z,7.22
2017-04-13T10:53:18.967Z,9.13
2017-04-13T10:54:17.521Z,7.52
2017-04-13T10:55:16.027Z,5.80
2017-04-13T10:56:14.618Z,13.20
2017-04-13T10:57:13.125Z,6.87
2017-04-13T10:58:11.663Z,4.50
2017-04-13T10:59:10.181Z,5.22
2017-04-13T11:00:08.750Z,7.07
2017-04-13T11:01:07.291Z,7.38
2017-04-13T11:02:05.846Z,7.88
2017-04-13T11:03:04.352Z,7.95
2017-04-13T11:04:03.309Z,7.58
2017-04-13T11:05:02.280Z,6.92
2017-04-13T11:06:00.828Z,9.67
2017-04-13T11:06:59.444Z,6.05
2017-04-13T11:07:57.986Z,5.97
2017-04-13T11:08:56.667Z,9.77
2017-04-13T11:09:55.275Z,5.50
2017-04-13T11:10:53.936Z,8.18
2017-04-13T11:11:52.441Z,9.17
2017-04-13T11:12:50.972Z,5.48
2017-04-13T11:13:49.598Z,9.52
2017-04-13T11:14:48.112Z,5.82
2017-04-13T11:15:46.642Z,11.37
2017-04-13T11:16:45.203Z,7.03
2017-04-13T11:17:43.727Z,7.93
2017-04-13T11:18:42.324Z,11.58
2017-04-13T11:19:40.927Z,6.62
2017-04-13T11:20:39.990Z,6.72
2017-04-13T11:21:38.796Z,6.70
2017-04-13T11:22:37.403Z,7.28
2017-04-13T11:23:35.923Z,11.65
2017-04-13T11:24:34.434Z,8.22
2017-04-13T11:25:33.006Z,7.00
2017-04-13T11:26:31.542Z,11.28
2017-04-13T11:27:30.169Z,7.50
2017-04-13T11:28:28.729Z,6.65
2017-04-13T11:29:27.278Z,10.52
2017-04-13T11:30:25.771Z,8.22
2017-04-13T11:31:24.295Z,8.67
2017-04-13T11:32:22.867Z,13.60
2017-04-13T11:33:21.574Z,7.17
2017-04-13T11:34:20.140Z,6.65
2017-04-13T11:35:18.841Z,7.38
2017-04-13T11:36:17.421Z,6.40
2017-04-13T11:37:15.978Z,7.05
2017-04-13T11:38:14.512Z,8.62
2017-04-13T11:39:13.028Z,7.73
2017-04-13T11:40:11.558Z,7.68
2017-04-13T11:41:10.163Z,10.65
2017-04-13T11:42:08.755Z,7.92
2017-04-13T11:43:07.296Z,7.42
2017-04-13T11:44:05.760Z,8.85
2017-04-13T11:45:04.367Z,7.58
2017-04-13T11:46:03.367Z,10.40
2017-04-13T11:47:01.996Z,9.57
2017-04-13T11:48:00.539Z,13.10
2017-04-13T11:48:59.076Z,9.93
2017-04-13T11:49:57.642Z,12.37
2017-04-13T11:50:56.207Z,9.92
2017-04-13T11:51:54.732Z,12.23
2017-04-13T11:52:53.256Z,10.50
2017-04-13T11:53:51.780Z,16.88
2017-04-13T11:54:50.376Z,8.35
2017-04-13T11:55:48.920Z,11.57
2017-04-13T11:56:47.476Z,11.03
2017-04-13T11:57:45.979Z,12.83
2017-04-13T11:58:44.470Z,12.40
2017-04-13T11:59:42.976Z,13.23
2017-04-13T12:00:41.547Z,11.70
2017-04-13T12:01:40.113Z,9.42
2017-04-13T12:02:38.637Z,9.38
2017-04-13T12:03:37.198Z,10.92
2017-04-13T12:04:35.867Z,11.85
2017-04-13T12:05:34.430Z,13.33
2017-04-13T12:06:32.976Z,9.67
2017-04-13T12:07:31.648Z,12.07
2017-04-13T12:08:30.236Z,9.00
2017-04-13T12:09:28.898Z,10.43
2017-04-13T12:10:27.495Z,13.12
2017-04-13T12:11:26.052Z,11.95
2017-04-13T12:12:24.568Z,14.50
2017-04-13T12:13:23.090Z,9.03
2017-04-13T12:14:21.659Z,10.03
2017-04-13T12:15:20.198Z,11.15
2017-04-13T12:16:18.781Z,10.10
2017-04-13T12:17:17.323Z,11.72
2017-04-13T12:18:15.854Z,13.52
2017-04-13T12:19:14.499Z,11.63
2017-04-13T12:20:13.395Z,11.90
2017-04-13T12:21:11.908Z,8.95
2017-04-13T12:22:10.506Z,11.70
2017-04-13T12:23:09.103Z,8.85
2017-04-13T12:24:07.713Z,9.20
2017-04-13T12:25:06.259Z,10.28
2017-04-13T12:26:04.836Z,10.37
2017-04-13T12:27:03.683Z,11.08
2017-04-13T12:28:02.198Z,10.72
2017-04-13T12:29:00.767Z,13.08
2017-04-13T12:29:59.283Z,11.65
2017-04-13T12:30:57.806Z,11.05
2017-04-13T12:31:56.376Z,13.52
2017-04-13T12:32:54.892Z,11.87
2017-04-13T12:33:53.571Z,17.03
2017-04-13T12:34:52.169Z,10.20
2017-04-13T12:35:50.695Z,15.12
2017-04-13T12:36:49.210Z,12.93
2017-04-13T12:37:47.740Z,12.02
2017-04-13T12:38:46.299Z,9.35
2017-04-13T12:39:44.898Z,11.57